Time;durP1;ratioP1;P1;durP2;ratioP2;P2;SDS_P1;SDS_P2;PMS_P1;PMS_P2;Temp;Humidity;BMP_temperature;BMP_pressure;BME280_temperature;BME280_humidity;BME280_pressure;Samples;Min_cycle;Max_cycle;Signal;HPM_P1;HPM_P2
2022/09/05 00:02:04;;;;;;;3.30;2.10;;;;;;;17.84;56.07;101427.09;108233;1276;61553;-81
2022/09/05 00:04:59;;;;;;;3.50;2.10;;;;;;;17.80;56.08;101429.25;108021;1277;74107;-81
2022/09/05 00:08:01;;;;;;;2.90;1.80;;;;;;;17.76;56.24;101429.48;107843;1276;71379;-81
2022/09/05 00:10:30;;;;;;;3.50;1.90;;;;;;;17.71;56.61;101428.40;108189;1276;72771;-81
2022/09/05 00:13:05;;;;;;;3.10;1.90;;;;;;;17.68;56.74;101425.55;108157;1277;61957;-81
2022/09/05 00:16:05;;;;;;;3.90;2.20;;;;;;;17.63;56.83;101423.94;107983;1276;60780;-81
2022/09/05 00:18:55;;;;;;;5.20;2.10;;;;;;;17.60;56.91;101421.20;108247;1276;75533;-81
2022/09/05 00:22:14;;;;;;;2.80;2.20;;;;;;;17.56;57.01;101420.98;108126;1276;72863;-81
2022/09/05 00:25:16;;;;;;;3.50;2.20;;;;;;;17.50;57.24;101420.60;108211;1276;76613;-81
2022/09/05 00:27:59;;;;;;;3.90;1.90;;;;;;;17.46;57.23;101420.06;108197;1276;60460;-81
2022/09/05 00:30:56;;;;;;;2.80;2.00;;;;;;;17.43;57.38;101418.39;108122;1277;61762;-81
2022/09/05 00:34:02;;;;;;;3.30;1.80;;;;;;;17.41;57.61;101425.02;108060;1276;76557;-81
2022/09/05 00:36:32;;;;;;;3.30;2.00;;;;;;;17.39;57.72;101428.61;108197;1276;71451;-80
2022/09/05 00:39:07;;;;;;;2.90;1.90;;;;;;;17.36;57.77;101428.32;108010;1276;72748;-81
2022/09/05 00:41:35;;;;;;;4.30;2.20;;;;;;;17.35;57.87;101429.31;107944;1276;62893;-81
2022/09/05 00:44:03;;;;;;;3.90;2.10;;;;;;;17.32;58.02;101428.56;108217;1276;61694;-81
2022/09/05 00:46:35;;;;;;;3.10;2.10;;;;;;;17.29;58.13;101430.73;107868;1276;73257;-81
2022/09/05 00:49:33;;;;;;;4.80;2.60;;;;;;;17.28;58.25;101429.48;108024;1276;72199;-81
2022/09/05 00:52:17;;;;;;;5.50;2.60;;;;;;;17.25;58.33;101433.83;108194;1276;74047;-81
2022/09/05 00:55:11;;;;;;;3.40;2.10;;;;;;;17.23;58.49;101434.97;107770;1279;62600;-80
2022/09/05 00:57:58;;;;;;;4.70;2.30;;;;;;;17.20;58.62;101434.71;108198;1276;60334;-79
2022/09/05 01:00:49;;;;;;;3.90;2.30;;;;;;;17.16;58.70;101436.13;107788;1276;74306;-80
2022/09/05 01:03:29;;;;;;;3.20;2.30;;;;;;;17.11;58.97;101433.64;107762;1279;71348;-80
2022/09/05 01:06:16;;;;;;;3.70;2.30;;;;;;;17.08;59.09;101434.41;108008;1276;73049;-79
2022/09/05 01:09:08;;;;;;;4.70;2.30;;;;;;;17.05;59.20;101435.55;108009;1279;62818;-79
2022/09/05 01:11:59;;;;;;;4.40;2.20;;;;;;;17.01;59.29;101438.34;108130;1276;60701;-80
2022/09/05 01:14:45;;;;;;;4.60;2.50;;;;;;;16.99;59.47;101441.34;108123;1277;75391;-80
2022/09/05 01:17:19;;;;;;;3.20;2.30;;;;;;;16.95;59.53;101440.95;108137;1277;71564;-79
2022/09/05 01:20:08;;;;;;;3.70;2.40;;;;;;;16.92;59.67;101440.77;108200;1276;73285;-80
2022/09/05 01:23:04;;;;;;;3.50;2.20;;;;;;;16.88;59.77;101442.39;107968;1276;61080;-80
2022/09/05 01:25:43;;;;;;;5.40;2.30;;;;;;;16.85;59.83;101442.17;108002;1278;60572;-80
2022/09/05 01:28:59;;;;;;;3.40;2.20;;;;;;;16.83;60.03;101443.03;108253;1276;74417;-80
2022/09/05 01:31:59;;;;;;;2.90;2.10;;;;;;;16.80;60.12;101444.60;108122;1276;71358;-80
2022/09/05 01:34:29;;;;;;;3.00;2.10;;;;;;;16.78;60.19;101442.39;108159;1276;74034;-80
2022/09/05 01:37:15;;;;;;;4.40;2.00;;;;;;;16.76;60.28;101441.23;108016;1276;63023;-80
2022/09/05 01:40:18;;;;;;;3.10;1.90;;;;;;;16.74;60.32;101439.90;108032;1276;61386;-80
2022/09/05 01:43:09;;;;;;;3.80;2.20;;;;;;;16.71;60.59;101436.59;108138;1276;74240;-80
2022/09/05 01:46:21;;;;;;;3.00;2.10;;;;;;;16.69;60.58;101435.55;108152;1276;72379;-80
2022/09/05 01:48:53;;;;;;;2.90;2.00;;;;;;;16.66;60.75;101434.24;108049;1276;73041;-80
2022/09/05 01:51:35;;;;;;;5.30;2.20;;;;;;;16.65;60.85;101437.21;108034;1276;63673;-80
2022/09/05 01:54:29;;;;;;;3.90;2.20;;;;;;;16.64;60.79;101431.06;108211;1276;61328;-80
2022/09/05 01:57:34;;;;;;;3.60;1.90;;;;;;;16.63;60.90;101436.20;108160;1276;73619;-80
2022/09/05 02:00:08;;;;;;;3.30;2.10;;;;;;;16.62;60.96;101436.16;108191;1276;71365;-80
2022/09/05 02:02:56;;;;;;;2.60;1.90;;;;;;;16.62;60.91;101432.16;108047;1276;73040;-80
2022/09/05 02:05:49;;;;;;;2.80;2.00;;;;;;;16.62;60.96;101433.02;108168;1276;63236;-80
2022/09/05 02:08:46;;;;;;;3.10;2.10;;;;;;;16.61;61.03;101432.90;108185;1276;60551;-80
2022/09/05 02:11:13;;;;;;;3.50;2.10;;;;;;;16.61;61.05;101432.65;108028;1276;75304;-80
2022/09/05 02:14:26;;;;;;;3.20;2.00;;;;;;;16.59;61.14;101430.01;108058;1276;72819;-81
2022/09/05 02:17:41;;;;;;;3.30;2.20;;;;;;;16.59;61.08;101431.93;107984;1277;74419;-81
2022/09/05 02:20:28;;;;;;;3.10;1.90;;;;;;;16.60;61.18;101431.13;107834;1276;62734;-80
2022/09/05 02:23:09;;;;;;;2.90;2.10;;;;;;;16.59;61.18;101432.72;108175;1276;60337;-80
2022/09/05 02:26:16;;;;;;;3.10;2.00;;;;;;;16.57;61.19;101431.42;108070;1276;75462;-80
2022/09/05 02:28:59;;;;;;;2.70;2.10;;;;;;;16.57;61.17;101430.48;108217;1276;72894;-80
2022/09/05 02:31:38;;;;;;;3.90;2.10;;;;;;;16.56;61.18;101429.61;108082;1277;72932;-80
2022/09/05 02:34:34;;;;;;;3.30;2.00;;;;;;;16.55;61.33;101428.65;108046;1276;62590;-80
2022/09/05 02:37:35;;;;;;;2.80;2.10;;;;;;;16.54;61.29;101425.48;108119;1277;60431;-80
2022/09/05 02:40:31;;;;;;;4.60;2.00;;;;;;;16.53;61.39;101424.31;108144;1276;74880;-80
2022/09/05 02:43:26;;;;;;;3.30;2.10;;;;;;;16.52;61.37;101424.98;108056;1279;72678;-80
2022/09/05 02:46:43;;;;;;;3.30;1.90;;;;;;;16.51;61.39;101424.55;108136;1276;74810;-80
2022/09/05 02:49:15;;;;;;;3.70;2.20;;;;;;;16.50;61.53;101421.70;108195;1276;63177;-80
2022/09/05 02:52:12;;;;;;;3.00;2.00;;;;;;;16.48;61.56;101421.36;108131;1276;62768;-80
2022/09/05 02:55:00;;;;;;;3.30;2.40;;;;;;;16.47;61.60;101419.42;108031;1276;75707;-80
2022/09/05 02:57:59;;;;;;;3.40;2.30;;;;;;;16.45;61.78;101416.77;108156;1276;74381;-80
2022/09/05 03:00:43;;;;;;;3.40;2.30;;;;;;;16.43;61.83;101411.19;108162;1276;71946;-80
2022/09/05 03:03:38;;;;;;;4.50;2.50;;;;;;;16.39;61.97;101412.49;108033;1277;62150;-81
2022/09/05 03:06:13;;;;;;;3.30;2.20;;;;;;;16.37;62.10;101413.04;108054;1279;60633;-80
2022/09/05 03:09:09;;;;;;;3.60;2.20;;;;;;;16.33;62.33;101409.77;108068;1276;74235;-80
2022/09/05 03:12:10;;;;;;;3.60;2.00;;;;;;;16.31;62.40;101411.78;108052;1276;71391;-80
2022/09/05 03:15:21;;;;;;;3.20;2.10;;;;;;;16.28;62.54;101409.31;107955;1277;72924;-80
2022/09/05 03:18:10;;;;;;;5.00;2.00;;;;;;;16.25;62.68;101408.73;108046;1276;62969;-80
2022/09/05 03:21:39;;;;;;;4.00;2.30;;;;;;;16.22;62.81;101409.64;108227;1276;60358;-80
2022/09/05 03:24:17;;;;;;;5.40;2.50;;;;;;;16.19;62.88;101410.28;107366;1283;75148;-81
2022/09/05 03:27:09;;;;;;;5.20;2.70;;;;;;;16.17;63.07;101413.77;108181;1276;72421;-80
2022/09/05 03:29:58;;;;;;;3.20;2.10;;;;;;;16.13;63.18;101415.52;108194;1276;72983;-81
2022/09/05 03:33:12;;;;;;;3.40;2.10;;;;;;;16.11;63.30;101416.68;108157;1276;61978;-81
2022/09/05 03:35:53;;;;;;;3.40;2.10;;;;;;;16.08;63.39;101417.77;108217;1276;61339;-81
2022/09/05 03:38:48;;;;;;;2.90;2.10;;;;;;;16.04;63.54;101418.73;107947;1279;75126;-81
2022/09/05 03:41:38;;;;;;;2.90;2.10;;;;;;;16.01;63.68;101418.29;108239;1276;71491;-81
2022/09/05 03:44:15;;;;;;;3.50;2.20;;;;;;;15.98;63.81;101420.20;107531;1279;71917;-80
2022/09/05 03:46:45;;;;;;;4.50;2.40;;;;;;;15.96;64.00;101419.77;108244;1276;62974;-80
2022/09/05 03:49:38;;;;;;;3.90;2.70;;;;;;;15.94;64.15;101421.69;108079;1278;61065;-80
2022/09/05 03:52:59;;;;;;;4.90;2.40;;;;;;;15.93;64.21;101418.34;108305;1276;75540;-80
2022/09/05 03:55:57;;;;;;;3.30;2.40;;;;;;;15.90;64.36;101422.02;108165;1276;72851;-80
2022/09/05 03:58:46;;;;;;;5.30;2.50;;;;;;;15.89;64.62;101425.80;108217;1276;74322;-80
2022/09/05 04:01:26;;;;;;;3.80;2.30;;;;;;;15.88;64.74;101426.67;108201;1276;62024;-80
2022/09/05 04:04:33;;;;;;;4.40;2.70;;;;;;;15.87;64.79;101431.70;108151;1276;62126;-80
2022/09/05 04:07:25;;;;;;;3.50;2.50;;;;;;;15.88;65.00;101430.66;108044;1276;75496;-80
2022/09/05 04:10:51;;;;;;;3.50;2.50;;;;;;;15.89;64.97;101425.80;108065;1276;74300;-80
2022/09/05 04:13:27;;;;;;;4.30;2.40;;;;;;;15.89;65.24;101434.15;108161;1276;72924;-80
2022/09/05 04:16:07;;;;;;;3.40;2.50;;;;;;;15.90;65.28;101435.79;108239;1276;63006;-80
2022/09/05 04:18:47;;;;;;;3.30;2.70;;;;;;;15.93;65.36;101438.23;108214;1276;59672;-81
2022/09/05 04:21:22;;;;;;;4.30;2.60;;;;;;;15.94;65.53;101441.77;108215;1276;74289;-80
2022/09/05 04:24:04;;;;;;;4.20;2.50;;;;;;;15.95;65.52;101445.12;107861;1276;71478;-81
2022/09/05 04:26:53;;;;;;;5.00;2.60;;;;;;;15.96;65.61;101443.36;108164;1277;72976;-80
2022/09/05 04:29:52;;;;;;;4.20;2.60;;;;;;;15.99;65.71;101441.73;108193;1276;60694;-80
2022/09/05 04:32:46;;;;;;;3.50;2.50;;;;;;;16.02;65.82;101437.98;107850;1276;61556;-80
2022/09/05 04:35:29;;;;;;;5.20;2.90;;;;;;;16.06;65.76;101442.45;108187;1276;73014;-80
2022/09/05 04:38:34;;;;;;;5.20;2.80;;;;;;;16.09;65.82;101442.61;108214;1276;71898;-80
2022/09/05 04:41:08;;;;;;;5.30;2.50;;;;;;;16.10;65.85;101443.16;108056;1277;74150;-80
2022/09/05 04:43:38;;;;;;;3.60;2.50;;;;;;;16.12;65.89;101448.23;108235;1276;62765;-80
2022/09/05 04:47:00;;;;;;;4.70;2.40;;;;;;;16.14;65.85;101447.60;108139;1279;61375;-80
2022/09/05 04:49:36;;;;;;;4.60;2.80;;;;;;;16.17;65.87;101457.23;107517;1279;74151;-80
2022/09/05 04:52:12;;;;;;;5.10;2.80;;;;;;;16.21;65.96;101457.00;108219;1276;71447;-79
2022/09/05 04:55:11;;;;;;;4.50;2.80;;;;;;;16.24;65.97;101456.86;108257;1276;73228;-80
2022/09/05 04:57:40;;;;;;;3.90;2.40;;;;;;;16.28;65.87;101457.48;107809;1277;63036;-79
2022/09/05 05:00:14;;;;;;;3.80;2.70;;;;;;;16.30;65.80;101458.92;108074;1279;60379;-83
2022/09/05 05:03:10;;;;;;;6.80;4.70;;;;;;;16.35;65.72;101463.95;108111;1278;75602;-79
2022/09/05 05:06:01;;;;;;;6.70;4.10;;;;;;;16.38;65.83;101470.20;108122;1278;72388;-78
2022/09/05 05:09:18;;;;;;;5.90;3.30;;;;;;;16.41;65.83;101472.61;107908;1279;74186;-78
2022/09/05 05:12:20;;;;;;;8.40;3.20;;;;;;;16.45;65.76;101476.95;108099;1278;62024;-78
2022/09/05 05:15:16;;;;;;;5.20;3.60;;;;;;;16.49;65.70;101481.44;107969;1278;63144;-80
2022/09/05 05:18:18;;;;;;;3.40;2.20;;;;;;;16.53;65.80;101482.94;107965;1279;75356;-80
2022/09/05 05:21:20;;;;;;;5.40;2.80;;;;;;;16.59;65.65;101487.00;108163;1279;72128;-80
2022/09/05 05:23:51;;;;;;;5.00;2.80;;;;;;;16.64;65.54;101486.33;107624;1281;74010;-80
2022/09/05 05:26:23;;;;;;;5.60;2.70;;;;;;;16.67;65.67;101486.20;107836;1279;61967;-79
2022/09/05 05:29:07;;;;;;;7.10;3.00;;;;;;;16.72;65.42;101484.94;108147;1279;60569;-80
2022/09/05 05:31:48;;;;;;;5.30;3.20;;;;;;;16.78;65.47;101483.70;108412;1279;73511;-80
2022/09/05 05:34:28;;;;;;;4.90;2.60;;;;;;;16.84;65.35;101482.23;108378;1281;69984;-80
2022/09/05 05:37:01;;;;;;;5.60;3.10;;;;;;;16.88;65.35;101482.95;108475;1279;73642;-80
2022/09/05 05:39:29;;;;;;;9.70;3.20;;;;;;;16.92;65.38;101484.60;108372;1278;62119;-80
2022/09/05 05:41:57;;;;;;;4.30;3.00;;;;;;;16.97;65.35;101489.04;108351;1279;60313;-80
2022/09/05 05:44:57;;;;;;;6.40;3.10;;;;;;;17.04;65.26;101495.31;108195;1278;76823;-80
2022/09/05 05:47:43;;;;;;;14.40;3.40;;;;;;;17.11;65.22;101497.98;108187;1278;72754;-80
2022/09/05 05:50:32;;;;;;;8.30;3.20;;;;;;;17.20;65.27;101498.42;108201;1278;73385;-80
2022/09/05 05:53:04;;;;;;;5.90;2.80;;;;;;;17.32;65.13;101502.98;108149;1276;62049;-80
2022/09/05 05:55:55;;;;;;;5.10;3.20;;;;;;;17.47;64.85;101504.61;108173;1278;60615;-80
2022/09/05 05:58:30;;;;;;;4.70;2.90;;;;;;;17.63;64.62;101508.77;108173;1277;75196;-80
2022/09/05 06:01:19;;;;;;;6.10;2.70;;;;;;;17.74;64.25;101511.05;108175;1278;71578;-80
2022/09/05 06:04:15;;;;;;;5.50;2.90;;;;;;;17.91;63.83;101507.78;107983;1279;74256;-80
2022/09/05 06:07:07;;;;;;;12.20;8.40;;;;;;;18.00;63.57;101501.27;108100;1279;62615;-79
2022/09/05 06:09:58;;;;;;;4.30;3.00;;;;;;;18.09;63.30;101498.05;107904;1278;60361;-79
2022/09/05 06:13:22;;;;;;;4.20;2.90;;;;;;;18.15;63.10;101497.81;108104;1278;77185;-77
2022/09/05 06:16:21;;;;;;;4.50;3.00;;;;;;;18.18;63.05;101501.91;107949;1278;72660;-78
2022/09/05 06:19:16;;;;;;;5.00;2.80;;;;;;;18.20;63.04;101505.18;107833;1279;74048;-79
2022/09/05 06:22:13;;;;;;;3.70;3.00;;;;;;;18.26;62.98;101503.10;108117;1278;62462;-78
2022/09/05 06:25:27;;;;;;;5.20;2.90;;;;;;;18.34;63.00;101500.42;107933;1278;61654;-79
2022/09/05 06:28:18;;;;;;;5.10;3.10;;;;;;;18.42;62.93;101503.90;107930;1279;75187;-81
2022/09/05 06:30:59;;;;;;;4.40;3.00;;;;;;;18.50;62.77;101500.67;108148;1279;71483;-81
2022/09/05 06:34:10;;;;;;;5.90;2.90;;;;;;;18.53;62.82;101499.79;108019;1278;74337;-80
2022/09/05 06:37:02;;;;;;;9.20;4.30;;;;;;;18.59;62.77;101500.28;107931;1278;61972;-80
2022/09/05 06:39:50;;;;;;;4.80;3.30;;;;;;;18.72;62.67;101503.34;108144;1278;60607;-81
2022/09/05 06:42:44;;;;;;;5.10;2.90;;;;;;;18.88;62.36;101502.34;108184;1278;74005;-80
2022/09/05 06:45:21;;;;;;;3.80;2.80;;;;;;;19.05;62.01;101503.12;107917;1278;72973;-79
2022/09/05 06:48:03;;;;;;;7.70;5.30;;;;;;;19.12;61.51;101502.48;107648;1281;73030;-81
2022/09/05 06:50:57;;;;;;;4.30;3.30;;;;;;;19.18;61.38;101501.72;108102;1279;62145;-80
2022/09/05 06:54:00;;;;;;;7.90;5.80;;;;;;;19.28;61.25;101506.00;108129;1278;61951;-80
2022/09/05 06:56:37;;;;;;;5.10;3.00;;;;;;;19.38;61.08;101501.73;107974;1279;75187;-80
2022/09/05 06:59:13;;;;;;;5.80;3.10;;;;;;;19.47;60.82;101499.95;108107;1279;72013;-81
2022/09/05 07:01:54;;;;;;;5.50;3.00;;;;;;;19.60;60.73;101503.15;108097;1279;74251;-81
2022/09/05 07:04:36;;;;;;;5.10;2.90;;;;;;;19.76;60.47;101503.55;107693;1279;61161;-80
2022/09/05 07:07:33;;;;;;;5.90;2.90;;;;;;;19.91;59.90;101507.23;108000;1279;63714;-80
2022/09/05 07:10:12;;;;;;;5.80;3.20;;;;;;;20.03;59.45;101506.45;108118;1278;75013;-80
2022/09/05 07:13:11;;;;;;;3.50;2.50;;;;;;;20.10;58.86;101508.30;108151;1278;74797;-79
2022/09/05 07:15:57;;;;;;;5.60;3.00;;;;;;;20.15;58.70;101510.73;108098;1279;73076;-79
2022/09/05 07:18:36;;;;;;;4.20;3.30;;;;;;;20.24;58.60;101508.48;108118;1278;60582;-80
2022/09/05 07:21:20;;;;;;;5.10;3.00;;;;;;;20.32;58.40;101515.96;108145;1278;60323;-81
2022/09/05 07:24:29;;;;;;;3.80;2.70;;;;;;;20.43;58.27;101519.73;108173;1279;74345;-81
2022/09/05 07:27:37;;;;;;;4.70;2.80;;;;;;;20.67;57.70;101521.95;107678;1279;70637;-81
2022/09/05 07:30:24;;;;;;;5.60;2.90;;;;;;;20.85;56.87;101521.45;108163;1279;76194;-80
2022/09/05 07:32:55;;;;;;;6.50;5.20;;;;;;;21.03;56.81;101523.20;108120;1279;61655;-80
2022/09/05 07:35:30;;;;;;;4.80;3.30;;;;;;;21.19;56.41;101529.26;107765;1281;60350;-80
2022/09/05 07:38:12;;;;;;;6.50;2.90;;;;;;;21.33;55.79;101526.09;107871;1279;74271;-83
2022/09/05 07:40:54;;;;;;;10.10;5.90;;;;;;;21.54;56.00;101526.54;108054;1279;72954;-83
2022/09/05 07:43:34;;;;;;;11.00;5.20;;;;;;;21.80;55.03;101524.60;106929;1279;1631702;-82
2022/09/05 07:46:23;;;;;;;5.70;3.80;;;;;;;22.05;54.78;101532.38;108162;1278;60617;-83
2022/09/05 07:48:58;;;;;;;41.40;36.50;;;;;;;22.29;53.97;101531.02;107794;1279;60629;-82
2022/09/05 07:51:27;;;;;;;6.80;5.50;;;;;;;22.45;53.21;101525.21;108048;1279;74875;-81
2022/09/05 07:54:22;;;;;;;5.00;3.20;;;;;;;22.67;52.62;101525.52;108137;1278;75142;-82
2022/09/05 07:57:14;;;;;;;15.80;5.30;;;;;;;22.90;52.28;101524.57;108114;1279;74982;-82
2022/09/05 08:00:08;;;;;;;18.70;11.10;;;;;;;23.06;51.39;101523.50;108016;1279;63608;-82
2022/09/05 08:02:57;;;;;;;13.50;10.60;;;;;;;23.27;51.18;101530.38;108029;1279;63279;-83
2022/09/05 08:05:27;;;;;;;6.80;4.50;;;;;;;23.37;50.24;101530.52;107599;1280;74856;-82
2022/09/05 08:08:06;;;;;;;15.10;12.50;;;;;;;23.41;50.38;101526.50;107955;1279;71359;-82
2022/09/05 08:10:48;;;;;;;15.50;11.20;;;;;;;23.48;50.02;101523.20;108018;1279;72957;-78
2022/09/05 08:13:44;;;;;;;6.00;3.00;;;;;;;23.60;49.59;101518.08;107950;1278;62709;-78
2022/09/05 08:16:19;;;;;;;4.50;2.90;;;;;;;23.64;49.58;101520.80;108122;1279;60655;-78
2022/09/05 08:18:59;;;;;;;3.50;2.70;;;;;;;23.68;49.34;101516.31;108169;1279;74926;-78
2022/09/05 08:21:40;;;;;;;5.50;2.90;;;;;;;23.75;49.29;101518.42;108069;1278;72799;-78
2022/09/05 08:24:25;;;;;;;5.30;2.70;;;;;;;23.83;48.93;101516.45;108149;1278;74254;-79
2022/09/05 08:27:12;;;;;;;4.30;2.90;;;;;;;23.97;48.62;101517.42;107790;1281;61671;-79
2022/09/05 08:29:56;;;;;;;4.00;2.60;;;;;;;24.15;48.45;101518.54;108101;1279;61604;-78
2022/09/05 08:32:59;;;;;;;4.60;2.70;;;;;;;24.34;48.11;101517.93;107670;1278;77267;-79
2022/09/05 08:35:44;;;;;;;4.50;2.70;;;;;;;24.55;48.03;101516.70;108131;1279;71526;-79
2022/09/05 08:38:13;;;;;;;6.20;2.80;;;;;;;24.70;47.18;101521.64;107864;1279;74165;-79
2022/09/05 08:41:02;;;;;;;4.70;2.90;;;;;;;24.92;47.03;101516.67;107986;1279;60420;-79
2022/09/05 08:44:04;;;;;;;4.20;2.60;;;;;;;25.11;46.39;101514.21;108136;1278;61021;-79
2022/09/05 08:47:35;;;;;;;6.30;2.70;;;;;;;25.21;45.96;101511.74;108108;1278;74705;-79
2022/09/05 08:50:37;;;;;;;5.10;2.70;;;;;;;25.25;45.76;101512.51;108151;1279;71464;-79
2022/09/05 08:53:35;;;;;;;4.40;2.50;;;;;;;25.36;45.47;101514.53;108063;1279;73042;-79
2022/09/05 08:56:20;;;;;;;5.80;3.50;;;;;;;25.29;45.11;101507.84;107845;1279;60940;-79
2022/09/05 08:59:33;;;;;;;9.70;7.30;;;;;;;25.33;45.08;101503.54;108134;1279;60567;-81
2022/09/05 09:02:48;;;;;;;3.80;2.60;;;;;;;25.34;45.26;101501.86;107871;1279;74348;-79
2022/09/05 09:05:39;;;;;;;7.50;4.70;;;;;;;25.31;45.07;101495.14;107415;1279;72168;-80
2022/09/05 09:09:04;;;;;;;4.20;2.80;;;;;;;25.35;45.04;101495.68;108131;1278;71771;-79
2022/09/05 09:11:52;;;;;;;6.40;2.90;;;;;;;25.37;45.11;101494.29;107072;1287;61144;-79
2022/09/05 09:14:44;;;;;;;4.10;2.70;;;;;;;25.51;45.26;101486.13;107922;1279;61718;-79
2022/09/05 09:17:25;;;;;;;4.70;2.60;;;;;;;25.68;44.68;101487.28;108176;1278;74167;-79
2022/09/05 09:20:05;;;;;;;4.80;2.70;;;;;;;25.75;43.55;101486.31;108049;1279;72244;-78
2022/09/05 09:22:44;;;;;;;3.80;2.50;;;;;;;25.64;43.38;101481.15;108159;1278;72528;-77
2022/09/05 09:25:15;;;;;;;5.90;3.00;;;;;;;25.74;44.01;101480.81;108081;1279;61006;-77
2022/09/05 09:27:51;;;;;;;3.70;2.60;;;;;;;25.92;44.15;101478.61;108038;1280;60587;-77
2022/09/05 09:30:42;;;;;;;4.50;2.60;;;;;;;26.14;43.67;101478.30;108037;1279;72804;-79
2022/09/05 09:33:20;;;;;;;6.00;2.70;;;;;;;26.26;43.15;101475.41;107878;1279;71295;-79
2022/09/05 09:36:03;;;;;;;3.90;2.80;;;;;;;26.26;42.85;101469.63;108028;1281;73739;-79
2022/09/05 09:38:47;;;;;;;3.50;2.40;;;;;;;26.22;42.62;101461.44;107743;1281;59454;-80
2022/09/05 09:41:33;;;;;;;3.40;2.40;;;;;;;26.18;42.50;101458.00;108181;1278;60280;-79
2022/09/05 09:44:40;;;;;;;4.90;2.30;;;;;;;26.15;42.61;101463.41;107928;1280;75120;-77
2022/09/05 09:47:12;;;;;;;4.60;2.60;;;;;;;26.13;42.53;101460.39;108028;1279;71362;-75
2022/09/05 09:50:10;;;;;;;3.80;2.70;;;;;;;26.13;42.54;101457.46;108052;1279;73959;-75
2022/09/05 09:53:12;;;;;;;3.10;2.30;;;;;;;26.23;43.12;101454.44;107963;1280;59512;-80
2022/09/05 09:56:17;;;;;;;6.20;2.90;;;;;;;26.33;42.46;101451.41;107997;1281;61572;-77
2022/09/05 09:59:17;;;;;;;6.30;2.80;;;;;;;26.35;42.14;101449.68;107736;1279;74590;-79
2022/09/05 10:02:14;;;;;;;5.60;3.10;;;;;;;26.46;42.10;101445.82;107951;1281;72825;-79
2022/09/05 10:05:26;;;;;;;5.60;3.60;;;;;;;26.68;42.16;101447.33;108106;1280;75536;-79
2022/09/05 10:08:36;;;;;;;4.30;2.40;;;;;;;26.67;41.34;101447.48;108114;1279;61743;-79
2022/09/05 10:11:37;;;;;;;3.20;2.40;;;;;;;26.67;41.43;101448.24;107954;1280;62255;-79
2022/09/05 10:14:33;;;;;;;6.00;2.50;;;;;;;26.86;41.43;101447.95;107739;1278;74146;-78
2022/09/05 10:17:24;;;;;;;5.80;3.00;;;;;;;26.96;41.10;101445.00;108014;1280;73363;-78
2022/09/05 10:20:19;;;;;;;5.00;2.90;;;;;;;27.11;41.08;101437.59;108033;1278;73387;-78
2022/09/05 10:23:20;;;;;;;4.60;3.40;;;;;;;27.31;41.02;101442.30;108045;1279;62003;-77
2022/09/05 10:26:08;;;;;;;3.90;2.60;;;;;;;27.49;40.40;101440.80;108023;1280;61687;-77
2022/09/05 10:28:51;;;;;;;4.50;2.20;;;;;;;27.56;39.88;101438.63;108098;1278;73870;-78
2022/09/05 10:31:29;;;;;;;4.40;2.90;;;;;;;27.62;39.96;101438.73;108044;1280;71644;-78
2022/09/05 10:34:22;;;;;;;4.30;2.60;;;;;;;27.69;39.32;101433.67;108028;1280;75979;-78
2022/09/05 10:37:11;;;;;;;8.00;5.00;;;;;;;27.77;39.88;101434.02;107813;1281;61961;-77
2022/09/05 10:39:51;;;;;;;3.80;2.40;;;;;;;27.88;39.48;101433.59;107807;1281;61654;-78
2022/09/05 10:42:33;;;;;;;4.00;2.10;;;;;;;27.89;38.47;101428.41;107890;1281;74597;-78
2022/09/05 10:45:27;;;;;;;3.60;2.20;;;;;;;27.94;38.62;101422.02;108167;1279;71251;-77
2022/09/05 10:48:35;;;;;;;3.00;2.10;;;;;;;28.08;39.06;101422.30;108018;1279;72978;-77
2022/09/05 10:51:18;;;;;;;7.80;2.50;;;;;;;28.25;38.97;101421.28;108101;1279;60980;-77
2022/09/05 10:54:21;;;;;;;3.90;2.60;;;;;;;28.40;38.24;101418.88;107956;1279;61727;-77
2022/09/05 10:57:22;;;;;;;6.20;2.20;;;;;;;28.57;37.99;101418.44;108103;1278;75423;-76
2022/09/05 11:00:04;;;;;;;7.10;2.80;;;;;;;28.73;37.83;101409.52;108142;1278;71513;-77
2022/09/05 11:02:56;;;;;;;4.60;2.40;;;;;;;28.80;37.46;101407.30;108125;1280;75907;-78
2022/09/05 11:05:36;;;;;;;3.90;2.90;;;;;;;28.88;36.99;101403.11;107868;1281;60490;-78
2022/09/05 11:08:08;;;;;;;5.90;2.40;;;;;;;28.81;37.05;101399.21;108093;1278;61382;-78
2022/09/05 11:10:47;;;;;;;4.60;2.40;;;;;;;28.95;38.07;101398.27;108014;1279;74680;-77
2022/09/05 11:13:48;;;;;;;5.10;2.80;;;;;;;29.09;37.49;101403.89;108141;1279;71563;-77
2022/09/05 11:16:58;;;;;;;5.60;2.90;;;;;;;29.14;37.35;101401.73;107950;1281;73607;-79
2022/09/05 11:19:55;;;;;;;6.30;2.50;;;;;;;29.27;37.54;101401.50;107081;1287;61589;-78
2022/09/05 11:22:23;;;;;;;4.40;2.20;;;;;;;29.46;36.90;101402.13;107864;1279;60796;-78
2022/09/05 11:24:59;;;;;;;5.00;2.40;;;;;;;29.49;36.01;101403.46;108068;1278;74941;-78
2022/09/05 11:27:34;;;;;;;5.80;2.70;;;;;;;29.59;36.43;101399.07;107676;1281;73769;-78
2022/09/05 11:30:09;;;;;;;4.40;2.40;;;;;;;29.74;36.37;101400.73;108110;1279;74204;-78
2022/09/05 11:33:39;;;;;;;3.30;2.50;;;;;;;29.80;35.78;101396.13;107962;1279;61845;-79
2022/09/05 11:36:32;;;;;;;4.60;2.20;;;;;;;29.71;35.89;101394.98;107766;1279;61962;-78
2022/09/05 11:39:48;;;;;;;6.20;2.70;;;;;;;29.92;35.97;101394.77;108068;1278;75663;-78
2022/09/05 11:42:50;;;;;;;3.60;2.20;;;;;;;30.17;35.86;101387.45;107931;1279;74527;-79
2022/09/05 11:45:35;;;;;;;3.50;2.40;;;;;;;30.30;34.76;101387.43;108003;1281;73941;-78
2022/09/05 11:48:11;;;;;;;5.90;2.70;;;;;;;30.37;34.84;101381.88;108112;1279;60624;-79
2022/09/05 11:51:09;;;;;;;4.00;2.50;;;;;;;30.59;34.52;101382.88;108151;1278;60826;-81
2022/09/05 11:53:39;;;;;;;3.10;2.00;;;;;;;30.76;34.31;101377.16;108389;1279;75141;-82
2022/09/05 11:56:29;;;;;;;4.70;2.40;;;;;;;30.78;33.41;101374.95;108476;1279;71393;-81
2022/09/05 11:59:20;;;;;;;3.80;2.10;;;;;;;30.82;33.52;101375.40;108437;1281;73985;-84
2022/09/05 12:02:17;;;;;;;5.80;2.30;;;;;;;31.16;33.85;101376.30;108621;1268;60751;-84
2022/09/05 12:05:10;;;;;;;6.90;2.60;;;;;;;31.50;32.98;101377.27;108693;1276;58076;-84
2022/09/05 12:08:12;;;;;;;5.60;2.60;;;;;;;31.95;32.73;101369.19;108514;1276;73397;-80
2022/09/05 12:10:52;;;;;;;3.50;2.30;;;;;;;32.26;32.01;101369.80;108419;1277;73031;-80
2022/09/05 12:13:37;;;;;;;5.40;2.50;;;;;;;32.83;31.58;101365.61;108464;1275;73220;-79
2022/09/05 12:16:37;;;;;;;3.90;2.20;;;;;;;33.50;30.83;101371.02;108381;1276;61961;-80
2022/09/05 12:19:38;;;;;;;3.90;1.80;;;;;;;34.26;29.20;101360.66;108395;1276;61400;-81
2022/09/05 12:22:17;;;;;;;3.90;2.30;;;;;;;34.02;28.47;101359.70;108389;1277;74100;-79
2022/09/05 12:25:07;;;;;;;3.50;2.20;;;;;;;34.00;28.93;101361.81;108359;1277;72866;-79
2022/09/05 12:27:57;;;;;;;4.20;2.00;;;;;;;34.42;28.45;101358.60;108393;1276;75693;-81
2022/09/05 12:30:45;;;;;;;4.00;1.90;;;;;;;34.89;27.60;101354.21;108352;1276;61737;-80
2022/09/05 12:33:33;;;;;;;3.50;2.20;;;;;;;35.70;27.02;101346.94;108419;1276;62212;-79
2022/09/05 12:36:40;;;;;;;4.00;2.10;;;;;;;36.18;26.29;101340.69;108360;1277;73701;-82
2022/09/05 12:39:48;;;;;;;7.80;1.80;;;;;;;36.57;25.46;101340.23;108572;1277;69748;-81
2022/09/05 12:42:51;;;;;;;3.10;1.70;;;;;;;37.26;25.10;101336.85;108529;1276;74963;-83
2022/09/05 12:45:50;;;;;;;2.30;1.50;;;;;;;38.26;23.63;101342.52;108332;1277;62187;-82
2022/09/05 12:48:27;;;;;;;4.50;1.80;;;;;;;38.98;22.59;101338.04;108446;1276;60596;-82
2022/09/05 12:51:18;;;;;;;9.30;1.90;;;;;;;39.58;22.56;101336.55;108338;1276;75360;-80
2022/09/05 12:54:46;;;;;;;3.80;1.90;;;;;;;39.80;22.16;101330.43;108058;1276;71519;-79
2022/09/05 12:57:26;;;;;;;6.70;1.80;;;;;;;39.84;21.96;101330.80;108301;1276;72960;-82
2022/09/05 13:00:16;;;;;;;2.90;2.00;;;;;;;40.81;20.96;101321.92;108306;1277;62512;-84
2022/09/05 13:03:03;;;;;;;3.20;1.60;;;;;;;41.78;20.31;101320.98;108171;1272;61229;-83